Time;durP1;ratioP1;P1;durP2;ratioP2;P2;SDS_P1;SDS_P2;PMS_P1;PMS_P2;Temp;Humidity;BMP_temperature;BMP_pressure;BME280_temperature;BME280_humidity;BME280_pressure;Samples;Min_cycle;Max_cycle;Signal;HPM_P1;HPM_P2
2022/01/15 00:02:17;;;;;;;27.50;23.17;;;3.50;78.90;;;;;;5099621;28;20221;-45
2022/01/15 00:04:43;;;;;;;27.37;23.80;;;3.50;78.80;;;;;;5097421;28;20740;-45
2022/01/15 00:07:09;;;;;;;26.30;23.30;;;3.50;78.90;;;;;;5097818;28;20422;-45
2022/01/15 00:09:34;;;;;;;26.53;22.90;;;3.50;78.90;;;;;;5098730;28;20263;-45
2022/01/15 00:12:00;;;;;;;25.90;22.30;;;3.40;78.90;;;;;;5091992;28;20219;-45
2022/01/15 00:14:34;;;;;;;27.23;22.80;;;3.40;78.90;;;;;;5078833;28;20251;-45
2022/01/15 00:17:08;;;;;;;27.40;23.20;;;3.40;78.90;;;;;;5077363;28;20411;-45
2022/01/15 00:19:43;;;;;;;22.70;20.03;;;3.40;79.00;;;;;;5076869;28;20522;-45
2022/01/15 00:22:10;;;;;;;29.00;22.57;;;3.30;79.10;;;;;;5076998;28;20473;-45
2022/01/15 00:24:37;;;;;;;24.73;21.83;;;3.30;79.10;;;;;;5076860;28;20957;-45
2022/01/15 00:27:04;;;;;;;28.40;21.57;;;3.30;79.20;;;;;;5091916;28;20469;-46
2022/01/15 00:29:31;;;;;;;24.83;20.87;;;3.30;79.20;;;;;;5115238;28;20449;-45
2022/01/15 00:32:08;;;;;;;26.00;22.47;;;3.30;79.30;;;;;;5118350;28;20492;-45
2022/01/15 00:34:33;;;;;;;24.50;21.33;;;3.20;79.30;;;;;;5118095;28;20855;-45
2022/01/15 00:37:01;;;;;;;25.17;21.27;;;3.20;79.30;;;;;;5118232;28;20808;-45
2022/01/15 00:39:27;;;;;;;27.50;22.10;;;3.20;79.30;;;;;;5118186;28;20202;-45
2022/01/15 00:41:53;;;;;;;28.03;22.57;;;3.20;79.30;;;;;;5118022;28;20466;-44
2022/01/15 00:44:33;;;;;;;24.70;21.27;;;3.10;79.30;;;;;;5117700;28;20410;-45
2022/01/15 00:46:58;;;;;;;30.03;22.30;;;3.10;79.50;;;;;;5099477;28;20421;-45
2022/01/15 00:49:24;;;;;;;27.43;22.53;;;3.10;79.50;;;;;;5117911;28;20417;-45
2022/01/15 00:51:50;;;;;;;31.40;22.83;;;3.10;79.60;;;;;;5118170;28;20215;-45
2022/01/15 00:54:15;;;;;;;28.73;23.20;;;3.00;79.50;;;;;;5117877;28;20176;-43
2022/01/15 00:56:41;;;;;;;26.73;22.60;;;3.00;80.20;;;;;;5118389;28;20184;-43
2022/01/15 00:59:09;;;;;;;26.20;22.17;;;3.00;79.60;;;;;;5118201;28;20180;-44
2022/01/15 01:01:35;;;;;;;23.53;21.10;;;3.00;79.70;;;;;;5117920;28;20585;-43
2022/01/15 01:04:00;;;;;;;27.23;21.90;;;2.90;79.70;;;;;;5118279;28;20418;-43
2022/01/15 01:06:26;;;;;;;27.33;23.03;;;2.90;79.70;;;;;;5118429;28;20248;-44
2022/01/15 01:08:52;;;;;;;28.07;19.90;;;2.90;79.70;;;;;;5118335;28;20192;-42
2022/01/15 01:11:29;;;;;;;26.27;21.30;;;2.90;79.90;;;;;;5118035;28;20250;-43
2022/01/15 01:24:24;;;;;;;32.20;24.83;;;2.70;79.90;;;;;;5116915;28;20414;-44
2022/01/15 01:27:04;;;;;;;29.37;23.73;;;2.70;80.10;;;;;;5116937;28;20466;-44
2022/01/15 01:29:41;;;;;;;30.90;23.70;;;2.60;80.10;;;;;;5116682;28;20451;-44
2022/01/15 01:34:53;;;;;;;32.20;23.50;;;2.60;80.30;;;;;;5034294;28;20436;-44
2022/01/15 01:37:30;;;;;;;34.83;24.93;;;2.60;80.30;;;;;;5103258;28;20433;-43
2022/01/15 01:40:13;;;;;;;29.93;22.77;;;2.60;80.40;;;;;;5116785;28;20904;-43
2022/01/15 01:42:43;;;;;;;27.80;21.83;;;2.50;80.30;;;;;;5117584;28;20870;-44
2022/01/15 01:45:14;;;;;;;30.00;22.73;;;2.50;80.40;;;;;;5117445;28;20508;-44
2022/01/15 01:47:42;;;;;;;28.17;22.67;;;2.50;80.40;;;;;;5117747;28;20433;-44
2022/01/15 01:50:10;;;;;;;30.83;25.03;;;2.50;80.40;;;;;;5117517;28;20510;-43
2022/01/15 01:52:36;;;;;;;29.17;22.77;;;2.50;80.50;;;;;;5117726;28;20499;-44
2022/01/15 01:55:03;;;;;;;29.50;22.40;;;2.40;80.50;;;;;;5117524;28;20426;-44
2022/01/15 01:57:29;;;;;;;29.87;23.17;;;2.40;80.60;;;;;;5117726;28;20418;-44
2022/01/15 01:59:55;;;;;;;31.17;22.83;;;2.40;80.70;;;;;;5099200;28;20782;-44
2022/01/15 02:02:20;;;;;;;28.93;23.03;;;2.40;80.80;;;;;;5099585;28;20625;-44
2022/01/15 02:04:57;;;;;;;26.47;22.97;;;2.30;80.70;;;;;;5117547;28;20488;-44
2022/01/15 02:07:27;;;;;;;30.40;22.33;;;2.30;80.90;;;;;;5118304;28;20183;-44
2022/01/15 02:09:54;;;;;;;25.27;20.50;;;2.30;80.90;;;;;;5121597;28;20507;-44
2022/01/15 02:12:20;;;;;;;24.53;20.90;;;2.30;81.00;;;;;;5121505;28;20843;-43
2022/01/15 02:14:46;;;;;;;24.77;22.00;;;2.30;81.10;;;;;;5121413;28;20449;-44
2022/01/15 02:17:16;;;;;;;29.43;23.03;;;2.20;81.00;;;;;;5121332;28;20426;-43
2022/01/15 02:25:15;;;;;;;24.50;21.93;;;2.20;81.20;;;;;;5121004;28;20412;-44
2022/01/15 02:27:41;;;;;;;30.43;23.37;;;2.20;81.20;;;;;;5121161;28;20462;-44
2022/01/15 02:30:10;;;;;;;28.73;23.47;;;2.10;81.10;;;;;;5120907;28;20523;-44
2022/01/15 02:32:36;;;;;;;25.80;21.90;;;2.10;81.30;;;;;;5121329;28;20270;-44
2022/01/15 02:35:03;;;;;;;26.77;22.00;;;2.10;81.40;;;;;;5121086;28;20517;-44
2022/01/15 02:37:30;;;;;;;28.63;24.17;;;2.10;81.40;;;;;;5121111;28;20447;-43
2022/01/15 02:39:58;;;;;;;23.87;20.80;;;2.10;81.40;;;;;;5121298;28;20500;-44
2022/01/15 02:42:30;;;;;;;28.60;22.10;;;2.10;81.40;;;;;;5120947;28;20442;-44
2022/01/15 02:44:58;;;;;;;27.07;21.50;;;2.00;81.30;;;;;;5120726;28;20455;-43
2022/01/15 02:50:12;;;;;;;29.53;22.10;;;2.00;81.50;;;;;;5120536;28;20413;-44
2022/01/15 02:52:37;;;;;;;25.47;21.60;;;2.00;81.50;;;;;;5121006;28;20745;-44
2022/01/15 02:58:25;;;;;;;30.07;25.67;;;2.00;81.60;;;;;;5120341;28;20480;-44
2022/01/15 03:00:51;;;;;;;34.17;25.93;;;2.00;81.60;;;;;;5120251;28;20418;-44
2022/01/15 03:03:17;;;;;;;29.67;24.37;;;1.90;81.50;;;;;;5120508;28;20169;-44
2022/01/15 03:05:43;;;;;;;29.57;25.00;;;1.90;81.60;;;;;;5120337;28;20486;-44
2022/01/15 03:08:09;;;;;;;30.47;23.20;;;1.90;81.70;;;;;;5120223;28;20702;-42
2022/01/15 03:10:35;;;;;;;28.23;23.77;;;1.90;81.80;;;;;;5120545;28;20233;-44
2022/01/15 03:13:03;;;;;;;29.33;23.87;;;1.80;81.90;;;;;;5119594;28;20418;-45
2022/01/15 03:15:28;;;;;;;29.10;22.67;;;1.80;82.00;;;;;;5120440;28;20216;-42
2022/01/15 03:17:54;;;;;;;30.00;22.63;;;1.80;82.10;;;;;;5120251;28;20832;-45
2022/01/15 03:20:26;;;;;;;29.97;22.83;;;1.80;82.10;;;;;;5119083;28;20177;-44
2022/01/15 03:22:52;;;;;;;27.57;21.97;;;1.70;82.00;;;;;;5120229;28;20207;-44
2022/01/15 03:25:18;;;;;;;28.67;21.60;;;1.70;82.10;;;;;;5120023;28;20788;-44
2022/01/15 03:27:43;;;;;;;26.73;20.87;;;1.70;82.20;;;;;;5119665;28;20319;-44
2022/01/15 03:30:10;;;;;;;24.80;21.33;;;1.70;82.20;;;;;;5120041;28;20172;-45
2022/01/15 03:32:42;;;;;;;28.67;20.67;;;1.70;82.30;;;;;;5120332;28;20184;-44
2022/01/15 03:35:11;;;;;;;30.17;24.03;;;1.70;82.30;;;;;;5119971;28;20418;-44
2022/01/15 03:37:37;;;;;;;24.27;21.40;;;1.70;82.40;;;;;;5119292;28;20429;-44
2022/01/15 03:40:04;;;;;;;28.83;21.80;;;1.70;82.50;;;;;;5102262;28;20407;-44
2022/01/15 03:42:30;;;;;;;25.60;21.10;;;1.60;82.50;;;;;;5120284;28;20839;-44
2022/01/15 03:44:55;;;;;;;24.40;20.43;;;1.60;82.70;;;;;;5119602;28;20425;-44
2022/01/15 03:47:21;;;;;;;26.23;21.63;;;1.60;82.90;;;;;;5101974;28;20195;-45
2022/01/15 03:49:46;;;;;;;24.97;20.03;;;1.60;83.10;;;;;;5119460;28;20176;-44
2022/01/15 03:52:12;;;;;;;24.77;19.37;;;1.60;83.20;;;;;;5119708;28;20219;-45
2022/01/15 03:54:38;;;;;;;25.23;21.60;;;1.60;83.20;;;;;;5119348;28;20277;-44
2022/01/15 03:57:04;;;;;;;25.50;20.87;;;1.60;83.10;;;;;;5119222;28;20187;-44
2022/01/15 03:59:30;;;;;;;22.70;19.93;;;1.50;83.20;;;;;;5120012;28;20187;-43
2022/01/15 04:01:56;;;;;;;23.97;19.00;;;1.50;83.20;;;;;;5119333;28;20441;-43
2022/01/15 04:04:22;;;;;;;23.90;19.87;;;1.50;83.90;;;;;;5118675;28;20487;-42
2022/01/15 04:06:48;;;;;;;23.50;18.73;;;1.50;83.30;;;;;;5118028;28;20436;-44
2022/01/15 04:09:14;;;;;;;23.80;19.20;;;1.50;83.20;;;;;;5118302;28;20430;-44
2022/01/15 04:11:40;;;;;;;21.17;18.97;;;1.50;83.20;;;;;;5117839;28;20958;-44
2022/01/15 04:14:09;;;;;;;23.27;19.57;;;1.50;83.30;;;;;;5118214;28;20279;-44
2022/01/15 04:16:35;;;;;;;22.37;18.70;;;1.40;83.30;;;;;;5118050;28;20425;-44
2022/01/15 04:19:01;;;;;;;23.97;19.67;;;1.40;83.30;;;;;;5100172;28;20758;-44
2022/01/15 04:21:27;;;;;;;22.30;19.13;;;1.30;83.30;;;;;;5119005;28;20510;-44
2022/01/15 04:23:53;;;;;;;23.20;18.57;;;1.40;83.50;;;;;;5118910;28;20421;-44
2022/01/15 04:26:24;;;;;;;23.03;18.53;;;1.30;83.30;;;;;;5117975;28;20426;-44
2022/01/15 04:28:50;;;;;;;23.40;18.43;;;1.30;83.30;;;;;;5118643;28;20511;-44
2022/01/15 04:31:17;;;;;;;23.33;17.67;;;1.30;83.30;;;;;;5118157;28;20576;-44
2022/01/15 04:33:43;;;;;;;21.40;17.73;;;1.30;83.30;;;;;;5118493;28;20414;-43
2022/01/15 04:36:09;;;;;;;22.90;19.50;;;1.30;83.20;;;;;;5119036;28;20422;-44
2022/01/15 04:38:37;;;;;;;20.63;17.30;;;1.30;84.00;;;;;;5118773;28;20240;-44
2022/01/15 04:41:04;;;;;;;21.53;17.70;;;1.20;83.20;;;;;;5118497;28;20422;-44
2022/01/15 04:43:30;;;;;;;24.80;19.43;;;1.20;83.20;;;;;;5118833;28;20429;-44
2022/01/15 04:45:58;;;;;;;21.73;17.63;;;1.20;83.30;;;;;;5118539;28;20426;-44
2022/01/15 04:48:24;;;;;;;22.93;18.80;;;1.20;83.40;;;;;;5118876;28;20180;-44
2022/01/15 04:50:49;;;;;;;24.43;19.30;;;1.20;83.60;;;;;;5118354;28;20483;-44
2022/01/15 04:53:15;;;;;;;23.63;19.67;;;1.20;83.60;;;;;;5118854;28;20191;-45
2022/01/15 04:55:41;;;;;;;21.10;18.13;;;1.10;83.60;;;;;;5117998;28;20172;-44
2022/01/15 04:58:07;;;;;;;22.97;18.83;;;1.10;83.60;;;;;;5118243;28;20266;-44
2022/01/15 05:00:33;;;;;;;22.53;18.43;;;1.10;83.70;;;;;;5118621;28;20225;-44
2022/01/15 05:02:59;;;;;;;24.70;18.80;;;1.10;83.80;;;;;;5118404;28;20441;-47
2022/01/15 05:05:26;;;;;;;22.63;19.10;;;1.10;83.80;;;;;;5117869;28;20449;-47
2022/01/15 05:07:55;;;;;;;23.83;18.17;;;1.10;83.90;;;;;;5117837;28;20254;-48
2022/01/15 05:10:25;;;;;;;20.27;17.23;;;1.10;83.80;;;;;;5117198;28;20414;-47
2022/01/15 05:12:54;;;;;;;23.03;18.60;;;1.10;83.60;;;;;;5117727;28;20501;-47
2022/01/15 05:15:20;;;;;;;23.10;17.30;;;1.10;83.30;;;;;;5117482;28;20414;-47
2022/01/15 05:17:46;;;;;;;22.93;18.20;;;1.20;83.20;;;;;;5117662;28;20462;-47
2022/01/15 05:20:16;;;;;;;23.47;20.30;;;1.20;83.10;;;;;;5117283;28;20563;-48
2022/01/15 05:22:42;;;;;;;25.63;18.50;;;1.20;83.00;;;;;;5117807;28;20524;-47
2022/01/15 05:25:09;;;;;;;22.17;18.77;;;1.10;82.80;;;;;;5117580;28;20508;-47
2022/01/15 05:27:40;;;;;;;25.90;20.93;;;1.10;82.70;;;;;;5117023;28;20292;-47
2022/01/15 05:30:06;;;;;;;21.93;19.53;;;1.10;82.60;;;;;;5117543;28;20449;-48
2022/01/15 05:32:33;;;;;;;26.40;18.77;;;1.10;82.60;;;;;;5116698;28;20549;-47
2022/01/15 05:34:59;;;;;;;23.23;18.20;;;1.10;82.50;;;;;;5116500;28;20429;-47
2022/01/15 05:37:27;;;;;;;24.27;18.20;;;1.10;82.50;;;;;;5116180;28;20968;-47
2022/01/15 05:39:53;;;;;;;23.20;19.30;;;1.10;82.50;;;;;;5117261;28;20173;-47
2022/01/15 05:42:19;;;;;;;22.97;18.67;;;1.10;82.50;;;;;;5117182;28;20907;-47
2022/01/15 05:44:44;;;;;;;21.70;19.03;;;1.00;82.40;;;;;;5120480;28;20509;-47
2022/01/15 05:47:10;;;;;;;23.27;18.60;;;1.00;82.40;;;;;;5120971;28;20764;-47
2022/01/15 05:49:37;;;;;;;24.80;19.00;;;1.00;82.30;;;;;;5121104;28;20180;-48
2022/01/15 05:52:03;;;;;;;22.93;17.03;;;1.00;82.30;;;;;;5120654;28;20302;-47
2022/01/15 05:54:29;;;;;;;19.47;16.73;;;1.00;82.30;;;;;;5120687;28;20425;-47
2022/01/15 05:56:55;;;;;;;24.20;19.40;;;1.00;82.30;;;;;;5120833;28;20418;-47
2022/01/15 05:59:20;;;;;;;22.93;17.73;;;1.00;82.30;;;;;;5121728;28;20248;-47
2022/01/15 06:01:48;;;;;;;20.97;16.97;;;1.00;82.40;;;;;;5121325;28;20428;-47
2022/01/15 06:04:17;;;;;;;24.80;19.03;;;1.00;82.50;;;;;;5121959;28;20188;-47
2022/01/15 06:06:45;;;;;;;22.13;18.30;;;1.00;82.50;;;;;;5121521;28;20906;-47
2022/01/15 06:09:13;;;;;;;24.93;19.40;;;1.00;82.60;;;;;;5121183;28;20414;-47
2022/01/15 06:11:40;;;;;;;23.57;19.27;;;0.90;82.70;;;;;;5103187;28;20481;-47
2022/01/15 06:14:05;;;;;;;22.87;18.17;;;0.90;82.70;;;;;;5121620;28;20750;-47
2022/01/15 06:16:31;;;;;;;23.23;18.27;;;0.90;82.70;;;;;;5120853;28;20425;-47
2022/01/15 06:18:57;;;;;;;21.90;18.60;;;0.90;82.70;;;;;;5119853;28;20195;-47
2022/01/15 06:21:22;;;;;;;22.10;19.33;;;0.90;82.80;;;;;;5119445;28;20176;-47
2022/01/15 06:23:48;;;;;;;22.83;19.50;;;0.90;82.80;;;;;;5119745;28;20212;-48
2022/01/15 06:26:16;;;;;;;25.63;20.50;;;0.90;82.90;;;;;;5100807;28;20210;-47
2022/01/15 06:28:42;;;;;;;24.57;19.63;;;0.90;82.90;;;;;;5119313;28;20180;-47
2022/01/15 06:31:07;;;;;;;21.03;18.37;;;0.90;82.90;;;;;;5118949;28;20555;-47
2022/01/15 06:33:33;;;;;;;24.20;19.33;;;0.80;82.90;;;;;;5120021;28;20180;-47
2022/01/15 06:35:59;;;;;;;25.20;20.20;;;0.80;82.90;;;;;;5119328;28;20233;-47
2022/01/15 06:38:25;;;;;;;24.90;19.70;;;0.80;82.90;;;;;;5120429;28;20474;-47
2022/01/15 06:40:51;;;;;;;25.80;19.87;;;0.80;83.00;;;;;;5119970;28;20430;-47
2022/01/15 06:43:16;;;;;;;21.20;18.13;;;0.80;83.00;;;;;;5120538;28;20562;-47
2022/01/15 06:45:42;;;;;;;20.40;17.90;;;0.80;82.90;;;;;;5120257;28;20577;-48
2022/01/15 06:48:08;;;;;;;23.90;19.33;;;0.80;82.90;;;;;;5102315;28;20180;-47
2022/01/15 06:50:33;;;;;;;25.50;20.30;;;0.80;83.10;;;;;;5101863;28;20199;-47
2022/01/15 06:52:59;;;;;;;22.10;18.83;;;0.70;83.10;;;;;;5120071;28;20187;-47
2022/01/15 06:55:25;;;;;;;22.37;18.50;;;0.70;83.10;;;;;;5119168;28;20559;-48
2022/01/15 06:57:50;;;;;;;21.70;17.37;;;0.70;83.30;;;;;;5095775;28;20477;-48
2022/01/15 07:00:17;;;;;;;24.67;17.90;;;0.70;83.40;;;;;;5109964;28;20181;-47
2022/01/15 07:02:43;;;;;;;24.10;17.90;;;0.70;83.40;;;;;;5082418;28;20177;-47
2022/01/15 07:05:09;;;;;;;22.60;19.17;;;0.70;83.30;;;;;;5099713;28;20426;-47
2022/01/15 07:07:39;;;;;;;23.77;18.73;;;0.70;83.30;;;;;;5109283;28;20473;-47
2022/01/15 07:10:06;;;;;;;21.20;18.47;;;0.70;83.30;;;;;;5098435;28;20441;-47
2022/01/15 07:12:31;;;;;;;22.00;17.87;;;0.70;83.30;;;;;;5103398;28;20475;-47
2022/01/15 07:14:57;;;;;;;21.33;17.77;;;0.70;83.20;;;;;;5081596;28;20540;-47
2022/01/15 07:17:25;;;;;;;23.67;17.20;;;0.70;83.20;;;;;;5098576;28;20188;-47
2022/01/15 07:19:54;;;;;;;21.57;17.60;;;0.80;83.20;;;;;;5099034;28;20458;-47
2022/01/15 07:22:22;;;;;;;20.37;16.70;;;0.80;83.10;;;;;;5098937;28;20662;-46
2022/01/15 07:24:48;;;;;;;21.10;15.90;;;0.80;83.00;;;;;;5098636;28;20852;-47
2022/01/15 07:27:13;;;;;;;21.77;16.70;;;0.80;82.90;;;;;;5097667;28;20535;-47
2022/01/15 07:29:42;;;;;;;18.17;15.33;;;0.80;82.90;;;;;;5098376;28;20232;-47
2022/01/15 07:32:08;;;;;;;20.70;17.07;;;0.90;83.00;;;;;;5098230;28;20200;-47
2022/01/15 07:34:33;;;;;;;17.90;15.50;;;0.90;82.90;;;;;;5098748;28;20484;-47
2022/01/15 07:36:59;;;;;;;19.40;15.67;;;0.90;82.80;;;;;;5098366;28;20419;-47
2022/01/15 07:39:26;;;;;;;22.37;16.90;;;0.90;82.70;;;;;;5097960;28;20513;-47
2022/01/15 07:41:52;;;;;;;18.70;16.27;;;1.00;82.70;;;;;;5098944;28;20423;-47
2022/01/15 07:44:18;;;;;;;20.87;16.27;;;1.10;82.70;;;;;;5099083;28;20517;-47
2022/01/15 07:46:44;;;;;;;19.43;16.10;;;1.20;82.80;;;;;;5098332;28;20521;-46
2022/01/15 07:49:12;;;;;;;20.43;15.47;;;1.30;82.60;;;;;;5097225;28;20753;-47
2022/01/15 07:51:38;;;;;;;17.00;14.00;;;1.50;82.50;;;;;;5097082;28;20262;-47
2022/01/15 07:54:03;;;;;;;17.67;15.80;;;1.70;82.30;;;;;;5097670;28;20457;-47
2022/01/15 07:56:29;;;;;;;21.73;16.70;;;2.00;82.20;;;;;;5097127;28;20180;-47
2022/01/15 07:58:54;;;;;;;19.37;14.97;;;2.30;82.00;;;;;;5097644;28;20230;-47
2022/01/15 08:01:20;;;;;;;21.60;15.57;;;2.60;81.60;;;;;;5098016;28;20208;-47
2022/01/15 08:03:48;;;;;;;18.90;15.20;;;2.90;81.10;;;;;;5097876;28;20187;-47
2022/01/15 08:06:14;;;;;;;19.10;14.90;;;3.20;80.30;;;;;;5097758;28;20275;-47
2022/01/15 08:08:43;;;;;;;18.83;15.40;;;3.60;79.70;;;;;;5098072;28;20544;-47
2022/01/15 08:11:08;;;;;;;18.30;15.37;;;4.00;79.00;;;;;;5080609;28;20462;-47
2022/01/15 08:13:34;;;;;;;17.53;15.63;;;4.30;78.10;;;;;;5098212;28;20433;-47
2022/01/15 08:16:01;;;;;;;17.83;15.93;;;4.70;77.40;;;;;;5098329;28;20223;-47
2022/01/15 08:18:28;;;;;;;22.50;16.90;;;5.10;76.60;;;;;;5081151;28;20165;-47
2022/01/15 08:20:54;;;;;;;19.47;17.47;;;5.50;75.70;;;;;;5080850;28;20418;-47
2022/01/15 08:23:20;;;;;;;20.03;17.13;;;5.90;74.60;;;;;;5098099;28;20511;-47
2022/01/15 08:25:45;;;;;;;18.67;16.77;;;6.30;73.60;;;;;;5098358;28;20471;-47
2022/01/15 08:28:11;;;;;;;18.50;16.67;;;6.70;72.90;;;;;;5096507;28;20228;-47
2022/01/15 08:30:37;;;;;;;19.37;17.33;;;7.10;71.70;;;;;;5096452;28;20216;-47
2022/01/15 08:33:02;;;;;;;19.87;17.63;;;7.60;71.00;;;;;;5097239;28;20230;-47
2022/01/15 08:35:28;;;;;;;20.83;18.53;;;8.20;69.80;;;;;;5109477;28;20207;-47
2022/01/15 08:37:54;;;;;;;20.37;18.23;;;9.00;68.20;;;;;;5099527;28;20176;-47
2022/01/15 08:40:21;;;;;;;20.23;18.13;;;9.70;65.80;;;;;;5117570;28;20176;-47
2022/01/15 08:42:47;;;;;;;18.63;16.60;;;10.60;62.00;;;;;;5113822;28;20482;-47
2022/01/15 08:45:15;;;;;;;19.27;17.30;;;11.40;59.30;;;;;;5115480;28;20436;-47
2022/01/15 08:47:40;;;;;;;20.03;17.93;;;12.40;57.10;;;;;;5097837;28;20957;-47
2022/01/15 08:50:08;;;;;;;18.47;16.70;;;13.40;54.50;;;;;;5097006;28;20422;-47
2022/01/15 08:52:34;;;;;;;19.93;17.97;;;14.40;52.20;;;;;;5072434;28;20569;-47
2022/01/15 08:55:01;;;;;;;17.73;16.10;;;15.30;49.60;;;;;;5115382;28;20414;-48
2022/01/15 08:57:26;;;;;;;19.37;17.53;;;16.10;47.10;;;;;;5115323;28;20916;-48
2022/01/15 08:59:52;;;;;;;20.50;18.60;;;17.00;45.30;;;;;;5115267;28;20409;-48
2022/01/15 09:02:18;;;;;;;21.17;18.20;;;17.70;43.10;;;;;;5115381;28;20187;-48
2022/01/15 09:04:44;;;;;;;21.10;18.90;;;18.50;41.40;;;;;;5116726;28;20413;-48
2022/01/15 09:07:10;;;;;;;18.20;16.50;;;19.20;39.80;;;;;;5117008;28;20260;-47
2022/01/15 09:09:36;;;;;;;19.50;17.60;;;19.80;38.50;;;;;;5117250;28;20176;-48
2022/01/15 09:12:02;;;;;;;20.67;18.80;;;20.50;37.60;;;;;;5117605;28;20463;-48
2022/01/15 09:14:28;;;;;;;21.13;19.23;;;21.20;36.50;;;;;;5115526;28;20426;-48
2022/01/15 09:16:53;;;;;;;19.60;17.80;;;22.00;35.40;;;;;;5117234;28;20505;-48
2022/01/15 09:19:19;;;;;;;19.30;17.60;;;22.70;34.70;;;;;;5116603;28;20183;-48
2022/01/15 09:21:46;;;;;;;20.00;18.20;;;23.30;33.30;;;;;;5117152;28;20206;-47
2022/01/15 09:24:12;;;;;;;19.20;17.70;;;23.60;33.10;;;;;;5117306;28;20473;-47
2022/01/15 09:27:00;;;;;;;19.93;17.90;;;24.30;32.40;;;;;;5116655;28;20494;-47
2022/01/15 09:32:11;;;;;;;18.10;16.60;;;25.50;31.00;;;;;;5116083;28;20463;-40
2022/01/15 09:34:37;;;;;;;17.93;16.40;;;26.00;30.20;;;;;;5116720;28;20431;-40
2022/01/15 09:37:04;;;;;;;19.30;17.77;;;26.60;29.70;;;;;;5117004;28;20409;-41
2022/01/15 09:39:30;;;;;;;18.00;16.50;;;26.90;29.50;;;;;;5117408;28;20424;-40
2022/01/15 09:41:56;;;;;;;18.33;16.83;;;27.50;29.20;;;;;;5116988;28;20688;-42
2022/01/15 09:44:23;;;;;;;18.63;17.03;;;27.90;28.70;;;;;;5116392;28;20463;-41
2022/01/15 09:46:50;;;;;;;18.97;17.43;;;28.30;28.20;;;;;;5116513;28;20417;-42
2022/01/15 09:49:18;;;;;;;18.57;17.07;;;28.70;27.90;;;;;;5116582;28;20454;-40
2022/01/15 09:51:45;;;;;;;18.50;16.80;;;29.00;27.70;;;;;;5116610;28;20445;-41
2022/01/15 09:54:18;;;;;;;17.27;15.93;;;29.30;27.40;;;;;;5116798;28;20818;-41
2022/01/15 09:56:46;;;;;;;17.10;15.73;;;29.80;27.20;;;;;;5117813;28;20391;-40
2022/01/15 09:59:12;;;;;;;16.40;14.90;;;30.40;26.80;;;;;;5115563;28;20409;-41
2022/01/15 10:01:40;;;;;;;13.80;12.70;;;31.00;26.60;;;;;;5115516;28;20460;-40
2022/01/15 10:04:06;;;;;;;15.80;14.50;;;31.60;26.00;;;;;;5117079;28;20172;-40
2022/01/15 10:06:32;;;;;;;15.00;13.80;;;31.90;25.90;;;;;;5098248;28;20423;-43
2022/01/15 10:09:03;;;;;;;13.63;12.63;;;32.20;25.70;;;;;;5115745;28;20221;-41
2022/01/15 10:11:48;;;;;;;13.00;12.00;;;32.70;25.40;;;;;;5115975;28;20190;-43
2022/01/15 10:14:28;;;;;;;13.70;12.70;;;32.90;25.00;;;;;;5094560;28;20452;-41
2022/01/15 10:16:55;;;;;;;13.20;12.20;;;33.00;24.70;;;;;;5107943;28;20496;-42
2022/01/15 10:19:35;;;;;;;13.10;12.10;;;33.30;24.70;;;;;;5115547;28;20456;-44
2022/01/15 10:22:09;;;;;;;13.70;12.60;;;33.50;24.60;;;;;;5116186;28;20435;-43
2022/01/15 10:24:39;;;;;;;12.70;11.70;;;33.80;24.40;;;;;;5115376;28;20805;-42
2022/01/15 10:27:28;;;;;;;14.20;13.20;;;34.10;24.30;;;;;;5114512;28;20463;-40
2022/01/15 10:30:01;;;;;;;12.83;11.73;;;34.40;24.10;;;;;;5098381;28;20449;-43
2022/01/15 10:32:31;;;;;;;13.67;12.57;;;34.20;24.10;;;;;;5099798;28;20403;-42
2022/01/15 10:35:00;;;;;;;11.73;10.83;;;34.30;23.90;;;;;;5098342;28;20400;-43
2022/01/15 10:37:33;;;;;;;13.27;12.17;;;34.30;23.90;;;;;;5097833;28;20517;-41
2022/01/15 10:40:11;;;;;;;11.50;10.47;;;34.10;23.70;;;;;;5082177;28;20382;-42
2022/01/15 10:42:38;;;;;;;11.87;10.97;;;34.00;23.80;;;;;;5098334;28;20448;-42
2022/01/15 10:45:09;;;;;;;10.90;10.00;;;33.80;23.70;;;;;;5097651;28;20808;-41
2022/01/15 10:47:44;;;;;;;9.77;9.07;;;33.60;23.80;;;;;;5095164;28;20408;-44
2022/01/15 10:50:28;;;;;;;10.37;9.37;;;33.30;23.70;;;;;;5096202;28;20486;-41
2022/01/15 10:52:54;;;;;;;9.90;9.10;;;33.20;23.80;;;;;;5095426;28;20394;-41
2022/01/15 10:55:26;;;;;;;9.80;9.10;;;33.00;23.60;;;;;;5095523;28;20442;-40
2022/01/15 10:57:58;;;;;;;9.43;8.73;;;33.00;23.70;;;;;;5096840;28;20440;-42
2022/01/15 11:00:27;;;;;;;9.77;8.97;;;33.20;23.70;;;;;;5097113;28;20798;-41
2022/01/15 11:02:58;;;;;;;9.63;8.90;;;33.50;23.70;;;;;;5096853;28;20998;-48
2022/01/15 11:05:47;;;;;;;10.13;9.33;;;33.70;23.50;;;;;;5098696;28;20481;-40
2022/01/15 11:08:16;;;;;;;9.33;8.63;;;34.20;23.40;;;;;;5098894;28;20523;-42
2022/01/15 11:10:43;;;;;;;10.10;9.30;;;34.70;23.20;;;;;;5098023;28;20390;-41
2022/01/15 11:13:11;;;;;;;9.50;8.73;;;35.10;23.10;;;;;;5097888;28;20443;-42
2022/01/15 11:15:43;;;;;;;9.20;8.40;;;35.80;22.80;;;;;;5098806;28;20424;-43
2022/01/15 11:18:18;;;;;;;8.73;8.00;;;36.20;22.40;;;;;;5097073;28;20418;-41
2022/01/15 11:20:46;;;;;;;8.30;7.60;;;37.00;22.30;;;;;;5098181;28;20496;-41
2022/01/15 11:23:13;;;;;;;9.27;8.57;;;37.70;21.90;;;;;;5096458;28;20678;-45
2022/01/15 11:25:39;;;;;;;8.20;7.50;;;38.20;21.40;;;;;;5095899;28;20696;-42
2022/01/15 11:28:05;;;;;;;8.23;7.60;;;38.90;21.20;;;;;;5078958;28;20557;-42
2022/01/15 11:30:32;;;;;;;8.40;7.77;;;39.10;21.00;;;;;;5062914;28;20469;-42
2022/01/15 11:32:58;;;;;;;7.53;6.93;;;39.20;20.80;;;;;;5095788;28;20432;-40
2022/01/15 11:35:45;;;;;;;8.57;7.87;;;39.70;20.80;;;;;;5096943;28;20423;-45
2022/01/15 11:38:31;;;;;;;8.80;8.00;;;39.90;20.80;;;;;;5079403;28;20406;-40
2022/01/15 11:40:57;;;;;;;9.33;8.53;;;40.30;20.70;;;;;;5095521;28;20478;-41
2022/01/15 11:43:33;;;;;;;7.87;7.30;;;40.60;20.50;;;;;;5080276;28;20419;-40
2022/01/15 11:46:08;;;;;;;9.00;8.37;;;40.90;20.70;;;;;;5097386;28;20424;-41
2022/01/15 11:48:36;;;;;;;9.60;8.93;;;41.10;20.50;;;;;;5079606;28;20850;-41
2022/01/15 11:51:13;;;;;;;8.77;8.07;;;41.20;20.40;;;;;;5098265;28;20413;-45
2022/01/15 11:53:57;;;;;;;9.17;8.47;;;41.20;20.50;;;;;;5098497;28;20879;-43
2022/01/15 11:56:37;;;;;;;9.50;8.83;;;41.30;20.50;;;;;;5096311;28;20451;-43
2022/01/15 11:59:24;;;;;;;11.00;10.20;;;41.50;20.30;;;;;;5095824;28;20430;-44
2022/01/15 12:01:53;;;;;;;10.10;9.40;;;41.50;20.20;;;;;;5096742;28;20914;-45
2022/01/15 12:04:33;;;;;;;11.27;10.50;;;41.50;20.40;;;;;;5095298;28;20425;-42
2022/01/15 12:07:05;;;;;;;10.80;10.00;;;41.60;20.40;;;;;;5096583;28;20873;-41
2022/01/15 12:09:51;;;;;;;11.53;10.73;;;41.90;20.40;;;;;;5096448;28;20811;-43
2022/01/15 12:12:20;;;;;;;11.87;10.90;;;41.70;20.20;;;;;;5061753;28;20469;-40
2022/01/15 12:15:09;;;;;;;13.37;12.47;;;41.90;20.30;;;;;;5094462;28;20518;-40
2022/01/15 12:17:44;;;;;;;11.87;11.07;;;41.90;20.30;;;;;;5095449;28;20414;-43
2022/01/15 12:20:21;;;;;;;13.53;12.60;;;42.00;20.30;;;;;;5096660;28;20701;-41
2022/01/15 12:22:48;;;;;;;13.13;12.13;;;41.90;20.30;;;;;;5096564;28;20913;-41
2022/01/15 12:25:32;;;;;;;13.53;12.60;;;41.90;20.30;;;;;;5095584;28;20427;-45
2022/01/15 12:28:09;;;;;;;13.10;12.20;;;42.20;20.30;;;;;;5095714;28;20461;-44
2022/01/15 12:30:37;;;;;;;13.50;12.60;;;42.40;20.20;;;;;;5094018;28;20418;-42
2022/01/15 12:33:07;;;;;;;15.07;13.97;;;42.50;20.20;;;;;;5078799;28;20498;-43
2022/01/15 12:35:35;;;;;;;13.73;12.80;;;42.60;20.20;;;;;;5111120;28;20494;-42
2022/01/15 12:38:10;;;;;;;14.53;13.47;;;42.60;20.10;;;;;;5116799;28;20814;-42
2022/01/15 12:40:38;;;;;;;14.27;13.07;;;42.50;20.10;;;;;;5107029;28;20442;-39
2022/01/15 12:43:04;;;;;;;12.70;11.87;;;42.60;20.00;;;;;;5118107;28;20415;-40
2022/01/15 12:45:30;;;;;;;12.53;11.63;;;42.60;20.00;;;;;;5116657;28;20429;-40
2022/01/15 12:47:56;;;;;;;13.13;12.20;;;42.90;20.00;;;;;;5116924;28;20172;-41
2022/01/15 12:50:22;;;;;;;12.10;11.30;;;42.80;19.90;;;;;;5113393;28;20451;-41
2022/01/15 12:53:00;;;;;;;10.80;10.10;;;42.80;19.80;;;;;;5115868;28;20418;-40
2022/01/15 12:55:31;;;;;;;10.57;9.87;;;42.80;19.80;;;;;;5114858;28;20429;-41
2022/01/15 12:57:56;;;;;;;9.13;8.53;;;42.40;19.80;;;;;;5113764;28;20413;-42
2022/01/15 13:00:25;;;;;;;10.37;9.60;;;42.50;19.80;;;;;;5095233;28;20422;-41
2022/01/15 13:02:57;;;;;;;9.30;8.70;;;42.80;19.50;;;;;;5108824;28;20211;-42
2022/01/15 13:05:28;;;;;;;10.03;9.23;;;42.80;19.40;;;;;;5088645;28;20927;-42
2022/01/15 13:08:03;;;;;;;9.80;9.20;;;42.80;19.40;;;;;;5102630;28;20575;-42
2022/01/15 13:10:45;;;;;;;8.60;8.00;;;42.80;19.40;;;;;;5112759;28;20423;-40